88NY weather

Zelazny Airport
Shelby, New York, United States

Public forecast

Using degrees Fahrenheit for public forecast. Weather courtesy of forecast.io.

Closest aviation weather report (METAR) to Zelazny Airport

Closest report is Buffalo Niagara International Airport, 21.0 nm (38.8 km) SW. Retrieved 2020/07/06 16:54 UTC (21 minutes ago):

KBUF 061654Z 06005KT 10SM FEW065 FEW090 33/14 A3003 RMK AO2 SLP163 T03280144

Closest aviation forecast (TAF) to Zelazny Airport

Closest forecast is Buffalo Niagara International Airport, 21.0 nm (38.8 km) SW. Retrieved 2020/07/06 12:22 UTC (5 hours ago):

TAF KBUF 061120Z 0612/0712 08004KT P6SM SCT150 FM061500 06005KT P6SM SCT250 FM061800 07008KT P6SM SCT200 FM070200 13004KT P6SM SCT250